Montrose, Louisiana
Current Conditions -  °F | °C
As of 3:35 AM on Monday 24 Nov 2014 (Local Time) from KIER Reporting Station
Clear Clear  
Wind Chill: 54°   Ceiling: Unl
Heat Index: 54°   Visibility: 10mi
Dew Point: 46°   Wind: 13mph
Humidity: 77%   Direction: 300°WNW
Pressure: 29.81"   Gusts: 17mph
Location:  31.6014°N, 92.9677°W
Report Text: KIER 240935Z AUTO 30011G15KT 10SM CLR 12/08 A2981 RMK AO2 T01200080
Loading
Personal Weather Stations






























Interactive Weather Map New forecast layout! Learn more

10-Day Weather Forecast

Advertisements
Track Severe Weather on mobile